NCAR-RAP Real-Time Weather Data

Output produced by METARs form (23 June 2018  15:27 UTC)
found at http://weather.rap.ucar.edu/surface/
 
RODN 231456Z AUTO 20012KT 10SM CLR 28/26 A2989 RMK AO2 SLP126 T02790259 403160272 50010 $
RODN 231356Z AUTO 20015KT 10SM CLR 28/26 A2990 RMK AO2 SLP130 T02810255 $
RODN 231256Z AUTO 19016G25KT 10SM FEW018 28/25 A2988 RMK AO2 SLP123 T02840254 $
RODN 231156Z AUTO 20015KT 10SM CLR 28/26 A2986 RMK AO2 SLP116 T02830255 10310 20283 53012 $
RODN 231056Z AUTO 20015KT 10SM CLR 29/25 A2984 RMK AO2 SLP109 T02850249 $
RODN 230956Z AUTO 20016G22KT 10SM CLR 29/26 A2983 RMK AO2 SLP106 T02880258 $
RODN 230856Z AUTO 20018G25KT 10SM CLR 30/26 A2982 RMK AO2 SLP103 T02970260 52004 $
RODN 230756Z AUTO 20016G25KT 10SM CLR 30/26 A2982 RMK AO2 SLP103 T03010264 $
RODN 230656Z AUTO 20020G26KT 10SM CLR 31/27 A2982 RMK AO2 PK WND 20027/40 SLP103 T03060265 $
RODN 230556Z AUTO 20019KT 10SM FEW200 31/26 A2981 RMK AO2 PK WND 19027/10 SLP099 T03080262 10316 20289 57005 $
RODN 230456Z AUTO 20020G27KT 10SM FEW100 SCT130 SCT160 BKN190 31/26 A2981 RMK AO2 SLP099 T03100262 $
RODN 230356Z AUTO 21018G23KT 10SM FEW046 SCT070 SCT085 BKN110 BKN140 OVC160 32/27 A2982 RMK AO2 SLP102 T03150269 $
RODN 230256Z AUTO 20017G25KT 10SM FEW085 SCT170 SCT200 31/27 A2982 RMK AO2 SLP102 T03120266 56005 $
RODN 230156Z AUTO 20020KT 10SM CLR 31/26 A2984 RMK AO2 PK WND 20026/28 SLP109 T03050264 $
RODN 230056Z AUTO 20017G22KT 10SM CLR 30/26 A2984 RMK AO2 SLP109 T03040261 $
RODN 222356Z AUTO 20014G20KT 10SM FEW020 29/26 A2984 RMK AO2 SLP109 70001 T02920260 10292 20272 52007 $
RODN 222256Z AUTO 20015KT 10SM CLR 28/25 A2983 RMK AO2 SLP106 T02830253 $
RODN 222156Z AUTO 20015KT 10SM CLR 28/26 A2982 RMK AO2 SLP103 T02820256 $
RODN 222056Z AUTO 20013KT 10SM CLR 27/25 A2982 RMK AO2 SLP103 T02730253 53005 $
RODN 221956Z AUTO 20013KT 10SM SCT012 27/26 A2980 RMK AO2 SLP096 T02730257 $
RODN 221856Z AUTO 20014G19KT 10SM FEW013 28/26 A2980 RMK AO2 SLP096 T02750257 $
RODN 221756Z AUTO 20016KT 10SM FEW014 28/26 A2980 RMK AO2 SLPNO T02760256 10283 20276 57008 $
RODN 221656Z AUTO 20014G20KT 10SM CLR 28/26 A2981 RMK AO2 SLP099 T02780258 $
RODN 221556Z AUTO 19014KT 10SM SCT017 28/25 A2982 RMK AO2 SLP103 T02800254 $
RODN 221546Z AUTO 18012KT 10SM SCT017 SCT023 28/25 A2982 RMK AO2 SLP103 $
RODN 221536Z AUTO 19011KT 10SM SCT017 SCT023 28/25 A2982 RMK AO2 SLP103 $
RODN 221526Z AUTO 19009KT 10SM SCT017 BKN023 28/26 A2982 RMK AO2 CIG 015 RWY05 SLP103 $
RODN 221456Z AUTO 18010KT 10SM FEW016 28/25 A2983 RMK AO2 LTG DSNT NW SLP106 T02800254 403130270 58001 $
RODN 221356Z AUTO 19011KT 10SM CLR 28/25 A2983 RMK AO2 LTG DSNT NW SLP106 T02810253 $
RODN 221256Z AUTO 19009KT 10SM CLR 28/25 A2984 RMK AO2 SLP109 T02810253 $
RODN 221206Z AUTO 18011KT 10SM SCT018 SCT026 28/25 A2984 RMK AO2 SLP109 $
RODN 221156Z AUTO 19009KT 10SM BKN018 BKN028 28/25 A2983 RMK AO2 CIG 018V029 BKN018 V SCT CIG 017 RWY05 SLP106 60001 T02840254 10306 20277 53018 $
RODN 221136Z AUTO 19010KT 10SM SCT020 BKN028 29/25 A2983 RMK AO2 BKN V SCT CIG 018 RWY05 SLP106 $
RODN 221056Z AUTO 18010KT 10SM FEW021 28/25 A2980 RMK AO2 SLP096 T02830251 $
RODN 220956Z AUTO 21011KT 10SM CLR 29/26 A2978 RMK AO2 SLP089 T02850257 $
RODN 220856Z AUTO 21012KT 10SM CLR 29/27 A2978 RMK AO2 SLPNO 60001 T02900266 $
RODN 220756Z AUTO 21011KT 10SM CLR 28/27 A2979 RMK AO2 RAB28E40 SLPNO P0001 T02830265 $
RODN 220740Z AUTO 21013KT 8SM FEW010 28/26 A2978 RMK AO2 RAB28E40 SLPNO $
RODN 220728Z AUTO 21013KT 8SM -RA FEW010 28/26 A2979 RMK AO2 RAB28 SLPNO $
RODN 220726Z AUTO 21013KT 10SM FEW008 28/26 A2979 RMK AO2 SLPNO $
RODN 220716Z AUTO 21013KT 3SM BR SCT008 28/26 A2979 RMK AO2 SLP093 $
RODN 220656Z AUTO 22014KT 10SM CLR 30/27 A2978 RMK AO2 SLP089 T02970269 $
RODN 220556Z AUTO 21016G20KT 10SM FEW180 30/27 A2979 RMK AO2 SLP092 T03020267 10313 20300 55005 $
RODN 220456Z AUTO 22016KT 10SM FEW110 FEW140 SCT180 30/27 A2979 RMK AO2 SLP092 T03040267 $
RODN 220356Z AUTO 21017KT 10SM FEW060 SCT090 SCT100 BKN140 BKN160 OVC190 30/27 A2979 RMK AO2 SLP092 T03040269 $
RODN 220256Z AUTO 21019G23KT 10SM FEW060 FEW100 SCT120 BKN150 BKN180 BKN200 31/27 A2980 RMK AO2 SLP096 T03060267 56003 $
RODN 220156Z AUTO 21016G21KT 10SM CLR 31/26 A2980 RMK AO2 SLP096 T03080260 $
RODN 220056Z AUTO 20016G23KT 10SM CLR 31/26 A2980 RMK AO2 SLP096 T03050262 $
RODN 212356Z AUTO 20015KT 10SM CLR 30/26 A2981 RMK AO2 SLP099 T03000259 10300 20273 $
RODN 212256Z AUTO 20011KT 10SM CLR 29/26 A2981 RMK AO2 SLP099 T02940257 $
RODN 212156Z AUTO 18010KT 10SM CLR 28/26 A2980 RMK AO2 SLP096 T02830257 $
RODN 212056Z 17006KT 7SM FEW030 SCT150 27/24 A2979 RMK SLPNO WND DATA/ALSTG ESTMD
RODN 211956Z 18008KT 7SM FEW030 SCT150 27/24 A2979 RMK SLPNO WND DATA/ALSTG ESTMD
RODN 211856Z AUTO 17009KT 10SM CLR 27/25 A2978 RMK AO2 SLP089 T02740252
RODN 211756Z AUTO 15008KT 10SM CLR 27/25 A2978 RMK AO2 SLP089 T02740250 10282 20270 57012
RODN 211656Z AUTO 18006KT 10SM CLR 27/25 A2979 RMK AO2 SLPNO T02710251
RODN 211556Z AUTO 16008KT 10SM CLR 27/25 A2980 RMK AO2 SLP096 T02740254
RODN 211456Z AUTO 17009KT 10SM CLR 28/25 A2981 RMK AO2 SLP099 T02760254 403100274 50007
RODN 211356Z AUTO 16009KT 10SM CLR 28/25 A2982 RMK AO2 SLP103 T02770251
RODN 211256Z AUTO 17009KT 10SM CLR 28/25 A2981 RMK AO2 SLP099 T02790251
RODN 211156Z AUTO 17010KT 10SM CLR 28/25 A2979 RMK AO2 SLP093 T02820250 10307 20281 53004
RODN 211056Z AUTO 18012KT 10SM CLR 28/25 A2979 RMK AO2 SLP093 T02840248
RODN 210956Z AUTO 19011KT 10SM CLR 28/25 A2978 RMK AO2 SLP089 T02840248
RODN 210856Z AUTO 20012KT 10SM CLR 28/26 A2978 RMK AO2 SLP089 T02840260 53002
RODN 210756Z AUTO 21013KT 10SM CLR 30/26 A2977 RMK AO2 SLP086 T02950263
RODN 210656Z AUTO 20016KT 10SM CLR 30/27 A2977 RMK AO2 SLP086 T03020265
RODN 210556Z COR 21017KT 10SM FEW050 BKN130 31/26 A2977 RMK AO2 SLP086 T03050262 10310 20290 $ COR 0605
RODN 210456Z COR 21017G22KT 10SM FEW050 SCT090 BKN120 31/27 A2977 RMK SLP086 COR 0550
RODN 210356Z AUTO 20015G22KT 10SM FEW050 SCT090 BKN120 BKN160 OVC180 31/26 A2977 RMK AO2 PK WND 19026/18 SLP086 T03060263